createdAt,value
2018-02-03T00:00:07.657Z,5.60
2018-02-03T00:01:07.643Z,5.10
2018-02-03T00:02:28.644Z,5.40
2018-02-03T00:03:07.631Z,6.30
2018-02-03T00:04:07.622Z,5.10
2018-02-03T00:05:07.613Z,5.60
2018-02-03T00:06:07.602Z,6.10
2018-02-03T00:07:07.593Z,5.20
2018-02-03T00:08:28.596Z,5.80
2018-02-03T00:09:07.574Z,7.00
2018-02-03T00:10:07.568Z,4.90
2018-02-03T00:11:07.557Z,6.10
2018-02-03T00:12:07.560Z,5.20
2018-02-03T00:13:07.545Z,5.40
2018-02-03T00:14:28.538Z,5.00
2018-02-03T00:15:07.526Z,5.30
2018-02-03T00:16:07.517Z,5.10
2018-02-03T00:17:07.508Z,7.00
2018-02-03T00:18:07.500Z,6.30
2018-02-03T00:19:07.491Z,6.00
2018-02-03T00:20:28.495Z,5.50
2018-02-03T00:21:07.473Z,6.90
2018-02-03T00:22:07.465Z,5.60
2018-02-03T00:23:07.457Z,6.30
2018-02-03T00:24:07.448Z,5.90
2018-02-03T00:25:07.439Z,5.70
2018-02-03T00:26:28.436Z,6.50
2018-02-03T00:27:07.420Z,5.50
2018-02-03T00:28:07.409Z,5.60
2018-02-03T00:29:07.406Z,6.60
2018-02-03T00:30:07.394Z,6.40
2018-02-03T00:31:07.386Z,7.10
2018-02-03T00:32:28.380Z,6.70
2018-02-03T00:33:07.370Z,6.70
2018-02-03T00:34:07.360Z,7.10
2018-02-03T00:35:07.352Z,5.80
2018-02-03T00:36:07.342Z,5.80
2018-02-03T00:37:07.334Z,5.90
2018-02-03T00:38:28.328Z,6.60
2018-02-03T00:39:07.326Z,6.60
2018-02-03T00:40:07.308Z,7.30
2018-02-03T00:41:07.302Z,7.00
2018-02-03T00:42:07.287Z,7.20
2018-02-03T00:43:07.284Z,6.30
2018-02-03T00:44:28.281Z,7.20
2018-02-03T00:45:07.265Z,6.00
2018-02-03T00:46:07.255Z,6.70
2018-02-03T00:47:07.248Z,6.40
2018-02-03T00:48:07.236Z,5.90
2018-02-03T00:49:07.239Z,6.70
2018-02-03T00:50:28.227Z,7.00
2018-02-03T00:51:07.214Z,6.50
2018-02-03T00:52:07.202Z,5.90
2018-02-03T00:53:07.194Z,6.30
2018-02-03T00:54:07.188Z,6.30
2018-02-03T00:55:07.186Z,6.20
2018-02-03T00:56:28.203Z,6.20
2018-02-03T00:57:07.164Z,6.30
2018-02-03T00:58:07.146Z,6.00
2018-02-03T00:59:07.145Z,6.70
2018-02-03T01:00:07.136Z,6.60
2018-02-03T01:01:07.127Z,6.20
2018-02-03T01:02:28.119Z,7.90
2018-02-03T01:03:07.112Z,6.70
2018-02-03T01:04:07.101Z,6.60
2018-02-03T01:05:07.099Z,7.00
2018-02-03T01:06:07.086Z,5.70
2018-02-03T01:07:07.078Z,6.40
2018-02-03T01:08:28.073Z,5.80
2018-02-03T01:09:07.057Z,7.40
2018-02-03T01:10:07.049Z,6.90
2018-02-03T01:11:07.042Z,6.80
2018-02-03T01:12:07.032Z,7.10
2018-02-03T01:13:07.023Z,6.80
2018-02-03T01:14:28.023Z,7.30
2018-02-03T01:15:07.002Z,6.90
2018-02-03T01:16:07.001Z,7.80
2018-02-03T01:17:06.994Z,7.70
2018-02-03T01:18:06.980Z,8.00
2018-02-03T01:19:06.969Z,7.80
2018-02-03T01:20:27.968Z,7.50
2018-02-03T01:21:06.955Z,7.30
2018-02-03T01:22:06.945Z,9.20
2018-02-03T01:23:06.953Z,8.80
2018-02-03T01:24:06.930Z,8.60
2018-02-03T01:25:06.922Z,8.10
2018-02-03T01:26:27.919Z,10.30
2018-02-03T01:27:06.904Z,7.60
2018-02-03T01:28:06.898Z,7.00
2018-02-03T01:29:06.885Z,7.70
2018-02-03T01:30:06.879Z,8.00
2018-02-03T01:31:06.869Z,7.90
2018-02-03T01:32:27.867Z,8.30
2018-02-03T01:33:06.855Z,9.10
2018-02-03T01:34:06.840Z,8.10
2018-02-03T01:35:06.836Z,7.60
2018-02-03T01:36:06.829Z,7.50
2018-02-03T01:37:06.821Z,7.50
2018-02-03T01:38:27.815Z,8.80
2018-02-03T01:39:06.803Z,7.80
2018-02-03T01:40:06.792Z,7.70
2018-02-03T01:41:06.785Z,7.50
2018-02-03T01:42:06.776Z,7.30
2018-02-03T01:43:06.769Z,7.30
2018-02-03T01:44:27.767Z,7.00
2018-02-03T01:45:06.748Z,8.80
2018-02-03T01:46:06.741Z,7.60
2018-02-03T01:47:06.734Z,7.20
2018-02-03T01:48:06.728Z,7.60
2018-02-03T01:49:06.716Z,7.40
2018-02-03T01:50:27.713Z,7.70
2018-02-03T01:51:06.701Z,8.40
2018-02-03T01:52:06.692Z,9.10
2018-02-03T01:53:06.683Z,9.20
2018-02-03T01:54:06.670Z,8.30
2018-02-03T01:55:06.668Z,8.10
2018-02-03T01:56:27.664Z,7.10
2018-02-03T01:57:06.649Z,7.70
2018-02-03T01:58:06.638Z,8.50
2018-02-03T01:59:06.629Z,7.60
2018-02-03T02:00:06.621Z,8.20
2018-02-03T02:01:06.614Z,8.30
2018-02-03T02:02:27.610Z,9.00
2018-02-03T02:03:06.599Z,8.40
2018-02-03T02:04:06.585Z,7.80
2018-02-03T02:05:06.580Z,8.10
2018-02-03T02:06:06.570Z,8.60
2018-02-03T02:07:06.563Z,8.30
2018-02-03T02:08:27.560Z,8.30
2018-02-03T02:09:06.547Z,8.30
2018-02-03T02:10:06.531Z,8.70
2018-02-03T02:11:06.534Z,7.90
2018-02-03T02:12:06.522Z,10.20
2018-02-03T02:13:06.510Z,8.30
2018-02-03T02:14:27.502Z,9.00
2018-02-03T02:15:06.489Z,8.20
2018-02-03T02:16:06.484Z,8.80
2018-02-03T02:17:06.479Z,8.90
2018-02-03T02:18:06.468Z,8.80
2018-02-03T02:19:06.461Z,8.30
2018-02-03T02:20:27.458Z,9.10
2018-02-03T02:21:06.443Z,8.60
2018-02-03T02:22:06.433Z,9.50
2018-02-03T02:23:06.427Z,8.40
2018-02-03T02:24:06.417Z,9.70
2018-02-03T02:25:06.407Z,8.00
2018-02-03T02:26:27.405Z,8.20
2018-02-03T02:27:06.387Z,8.70
2018-02-03T02:28:06.385Z,8.20
2018-02-03T02:29:06.373Z,7.70
2018-02-03T02:30:06.365Z,7.50
2018-02-03T02:31:06.361Z,7.60
2018-02-03T02:32:27.356Z,7.70
2018-02-03T02:33:06.340Z,7.60
2018-02-03T02:34:06.330Z,8.90
2018-02-03T02:35:06.319Z,7.70
2018-02-03T02:36:06.313Z,7.30
2018-02-03T02:37:06.305Z,7.70
2018-02-03T02:38:27.301Z,8.30
2018-02-03T02:39:06.287Z,7.80
2018-02-03T02:40:06.280Z,8.90
2018-02-03T02:41:06.270Z,8.90
2018-02-03T02:42:06.265Z,8.30
2018-02-03T02:43:06.254Z,7.80
2018-02-03T02:44:27.300Z,8.20
2018-02-03T02:45:06.237Z,8.00
2018-02-03T02:46:06.227Z,9.50
2018-02-03T02:47:06.217Z,8.00
2018-02-03T02:48:06.211Z,8.60
2018-02-03T02:49:06.201Z,8.80
2018-02-03T02:50:27.198Z,8.40
2018-02-03T02:51:06.182Z,8.70
2018-02-03T02:52:06.172Z,9.20
2018-02-03T02:53:06.167Z,8.90
2018-02-03T02:54:06.168Z,9.10
2018-02-03T02:55:06.146Z,8.40
2018-02-03T02:56:27.146Z,9.60
2018-02-03T02:57:06.131Z,8.60
2018-02-03T02:58:06.124Z,10.30
2018-02-03T02:59:06.113Z,8.50
2018-02-03T03:00:06.102Z,9.30
2018-02-03T03:01:06.096Z,8.80
2018-02-03T03:02:27.092Z,8.20
2018-02-03T03:03:06.079Z,9.70
2018-02-03T03:04:06.073Z,8.60
2018-02-03T03:05:06.059Z,8.90
2018-02-03T03:06:06.049Z,9.10
2018-02-03T03:07:06.043Z,8.40
2018-02-03T03:08:27.040Z,8.90
2018-02-03T03:09:06.028Z,9.20
2018-02-03T03:10:06.015Z,8.20
2018-02-03T03:11:06.015Z,8.30
2018-02-03T03:12:06.000Z,8.00
2018-02-03T03:13:05.991Z,8.80
2018-02-03T03:14:26.986Z,9.40
2018-02-03T03:15:05.976Z,10.70
2018-02-03T03:16:05.963Z,8.30
2018-02-03T03:17:07.382Z,8.70
2018-02-03T03:18:05.950Z,8.70
2018-02-03T03:19:05.950Z,8.60
2018-02-03T03:20:27.459Z,8.30
2018-02-03T03:21:05.925Z,8.20
2018-02-03T03:22:05.912Z,8.80
2018-02-03T03:23:05.906Z,8.20
2018-02-03T03:24:05.897Z,9.30
2018-02-03T03:25:05.890Z,8.30
2018-02-03T03:26:26.881Z,8.90
2018-02-03T03:27:05.873Z,8.90
2018-02-03T03:28:05.861Z,9.10
2018-02-03T03:29:05.855Z,8.40
2018-02-03T03:30:05.847Z,9.30
2018-02-03T03:31:05.839Z,9.50
2018-02-03T03:32:26.831Z,9.00
2018-02-03T03:33:05.819Z,9.30
2018-02-03T03:34:05.810Z,8.90
2018-02-03T03:35:05.801Z,8.70
2018-02-03T03:36:05.795Z,9.20
2018-02-03T03:37:05.786Z,8.50
2018-02-03T03:38:26.779Z,8.90
2018-02-03T03:39:05.770Z,9.20
2018-02-03T03:40:05.759Z,9.20
2018-02-03T03:41:05.745Z,8.50
2018-02-03T03:42:05.739Z,9.40
2018-02-03T03:43:05.730Z,9.20
2018-02-03T03:44:26.747Z,10.20
2018-02-03T03:45:05.715Z,9.30
2018-02-03T03:46:05.706Z,9.40
2018-02-03T03:47:05.693Z,9.10
2018-02-03T03:48:05.690Z,8.90
2018-02-03T03:49:05.681Z,9.30
2018-02-03T03:50:26.679Z,9.20
2018-02-03T03:51:05.663Z,9.80
2018-02-03T03:52:05.654Z,9.30
2018-02-03T03:53:05.645Z,9.20
2018-02-03T03:54:05.637Z,9.20
2018-02-03T03:55:05.628Z,9.20
2018-02-03T03:56:26.626Z,9.50
2018-02-03T03:57:05.608Z,9.20
2018-02-03T03:58:05.601Z,8.70
2018-02-03T03:59:05.631Z,8.60
2018-02-03T04:00:05.587Z,9.30
2018-02-03T04:01:05.575Z,8.40
2018-02-03T04:02:27.469Z,8.90
2018-02-03T04:03:05.554Z,8.90
2018-02-03T04:04:05.548Z,8.70
2018-02-03T04:05:05.543Z,8.90
2018-02-03T04:06:05.531Z,8.40
2018-02-03T04:07:05.519Z,8.80
2018-02-03T04:08:26.524Z,7.70
2018-02-03T04:09:05.506Z,8.90
2018-02-03T04:10:05.522Z,8.10
2018-02-03T04:11:05.487Z,8.30
2018-02-03T04:12:05.486Z,8.50
2018-02-03T04:13:05.471Z,8.90
2018-02-03T04:14:26.469Z,8.90
2018-02-03T04:15:05.451Z,9.20
2018-02-03T04:16:05.449Z,8.30
2018-02-03T04:17:05.439Z,8.80
2018-02-03T04:18:05.428Z,8.90
2018-02-03T04:19:05.419Z,9.10
2018-02-03T04:20:26.417Z,8.80
2018-02-03T04:21:05.403Z,8.80
2018-02-03T04:22:05.394Z,9.10
2018-02-03T04:23:05.386Z,10.80
2018-02-03T04:24:05.373Z,8.60
2018-02-03T04:25:05.367Z,8.60
2018-02-03T04:26:26.363Z,9.20
2018-02-03T04:27:05.346Z,9.00
2018-02-03T04:28:05.352Z,8.60
2018-02-03T04:29:05.333Z,9.20
2018-02-03T04:30:05.325Z,9.70
2018-02-03T04:31:05.317Z,8.80
2018-02-03T04:32:26.315Z,9.60
2018-02-03T04:33:05.301Z,9.70
2018-02-03T04:34:05.285Z,9.70
2018-02-03T04:35:05.281Z,9.40
2018-02-03T04:36:05.273Z,9.80
2018-02-03T04:37:05.264Z,9.90
2018-02-03T04:38:26.260Z,9.90
2018-02-03T04:39:05.243Z,9.50
2018-02-03T04:40:05.242Z,10.40
2018-02-03T04:41:05.232Z,9.00
2018-02-03T04:42:05.226Z,9.80
2018-02-03T04:43:05.220Z,9.00
2018-02-03T04:44:26.206Z,9.40
2018-02-03T04:45:05.195Z,9.60
2018-02-03T04:46:05.185Z,10.80
2018-02-03T04:47:05.184Z,10.00
2018-02-03T04:48:05.166Z,9.70
2018-02-03T04:49:05.157Z,10.10
2018-02-03T04:50:26.157Z,10.00
2018-02-03T04:51:05.142Z,9.80
2018-02-03T04:52:05.133Z,9.50
2018-02-03T04:53:05.126Z,9.80
2018-02-03T04:54:05.127Z,11.30
2018-02-03T04:55:05.107Z,9.80
2018-02-03T04:56:26.106Z,9.30
2018-02-03T04:57:05.093Z,8.90
2018-02-03T04:58:05.082Z,9.00
2018-02-03T04:59:05.076Z,9.20
2018-02-03T05:00:05.067Z,9.00
2018-02-03T05:01:05.055Z,9.60
2018-02-03T05:02:26.051Z,9.80
2018-02-03T05:03:05.039Z,10.40
2018-02-03T05:04:05.030Z,9.70
2018-02-03T05:05:05.019Z,10.90
2018-02-03T05:06:05.067Z,10.10
2018-02-03T05:07:05.005Z,9.30
2018-02-03T05:08:25.999Z,10.20
2018-02-03T05:09:04.988Z,9.90
2018-02-03T05:10:04.998Z,9.50
2018-02-03T05:11:04.972Z,10.90
2018-02-03T05:12:05.149Z,9.90
2018-02-03T05:13:04.968Z,10.10
2018-02-03T05:14:25.950Z,10.00
2018-02-03T05:15:04.931Z,9.90
2018-02-03T05:16:04.932Z,9.60
2018-02-03T05:17:04.930Z,9.60
2018-02-03T05:18:04.919Z,9.80
2018-02-03T05:19:04.896Z,9.80
2018-02-03T05:20:25.897Z,8.80
2018-02-03T05:21:04.883Z,11.50
2018-02-03T05:22:04.874Z,11.00
2018-02-03T05:23:04.869Z,9.90
2018-02-03T05:24:04.861Z,10.60
2018-02-03T05:25:04.845Z,11.20
2018-02-03T05:26:25.844Z,9.50
2018-02-03T05:27:04.835Z,10.80
2018-02-03T05:28:04.827Z,10.50
2018-02-03T05:29:04.811Z,9.90
2018-02-03T05:30:04.833Z,10.20
2018-02-03T05:31:04.803Z,10.80
2018-02-03T05:32:25.795Z,10.60
2018-02-03T05:33:04.780Z,10.20
2018-02-03T05:34:04.770Z,10.20
2018-02-03T05:35:04.764Z,10.40
2018-02-03T05:36:04.754Z,9.80
2018-02-03T05:37:04.752Z,9.90
2018-02-03T05:38:25.747Z,10.00
2018-02-03T05:39:04.730Z,10.10
2018-02-03T05:40:04.715Z,9.80
2018-02-03T05:41:04.719Z,10.50
2018-02-03T05:42:04.703Z,10.60
2018-02-03T05:43:04.692Z,10.50
2018-02-03T05:44:25.693Z,10.40
2018-02-03T05:45:04.672Z,10.10
2018-02-03T05:46:04.662Z,10.70
2018-02-03T05:47:04.658Z,10.50
2018-02-03T05:48:04.653Z,10.50
2018-02-03T05:49:04.640Z,11.30
2018-02-03T05:50:25.637Z,10.40
2018-02-03T05:51:04.624Z,11.10
2018-02-03T05:52:04.619Z,10.70
2018-02-03T05:53:04.605Z,10.70
2018-02-03T05:54:04.595Z,10.40
2018-02-03T05:55:04.583Z,10.80
2018-02-03T05:56:25.586Z,11.20
2018-02-03T05:57:04.569Z,12.60
2018-02-03T05:58:04.560Z,11.30
2018-02-03T05:59:04.552Z,11.70
2018-02-03T06:00:04.550Z,12.40
2018-02-03T06:01:04.535Z,11.80
2018-02-03T06:02:25.532Z,11.60
2018-02-03T06:03:04.518Z,11.70
2018-02-03T06:04:04.509Z,9.90
2018-02-03T06:05:04.501Z,11.50
2018-02-03T06:06:04.486Z,13.00
2018-02-03T06:07:04.483Z,11.70
2018-02-03T06:08:25.479Z,11.90
2018-02-03T06:09:04.463Z,12.00
2018-02-03T06:10:04.456Z,11.90
2018-02-03T06:11:04.448Z,13.90
2018-02-03T06:12:04.438Z,12.40
2018-02-03T06:13:04.431Z,12.60
2018-02-03T06:14:25.426Z,12.80
2018-02-03T06:15:04.412Z,12.40
2018-02-03T06:16:04.399Z,12.40
2018-02-03T06:17:04.388Z,10.60
2018-02-03T06:18:04.385Z,10.40
2018-02-03T06:19:04.375Z,10.40
2018-02-03T06:20:25.367Z,12.90
2018-02-03T06:21:04.355Z,13.70
2018-02-03T06:22:04.348Z,18.40
2018-02-03T06:23:04.335Z,19.00
2018-02-03T06:24:04.338Z,15.90
2018-02-03T06:25:04.320Z,13.50
2018-02-03T06:26:25.311Z,14.00
2018-02-03T06:27:04.299Z,12.70
2018-02-03T06:28:04.291Z,12.30
2018-02-03T06:29:04.282Z,14.60
2018-02-03T06:30:04.272Z,15.60
2018-02-03T06:31:04.265Z,12.60
2018-02-03T06:32:25.262Z,13.20
2018-02-03T06:33:04.246Z,13.70
2018-02-03T06:34:04.239Z,13.30
2018-02-03T06:35:04.233Z,11.60
2018-02-03T06:36:04.224Z,13.70
2018-02-03T06:37:04.208Z,11.60
2018-02-03T06:38:25.205Z,12.60
2018-02-03T06:39:04.192Z,12.70
2018-02-03T06:40:04.184Z,12.60
2018-02-03T06:41:04.174Z,12.70
2018-02-03T06:42:04.170Z,12.30
2018-02-03T06:43:04.155Z,11.30
2018-02-03T06:44:25.156Z,11.30
2018-02-03T06:45:04.150Z,13.40
2018-02-03T06:46:04.126Z,12.60
2018-02-03T06:47:04.117Z,11.80
2018-02-03T06:48:05.004Z,12.20
2018-02-03T06:49:04.101Z,12.50
2018-02-03T06:50:25.099Z,12.40
2018-02-03T06:51:04.080Z,13.20
2018-02-03T06:52:04.074Z,12.70
2018-02-03T06:53:04.084Z,12.50
2018-02-03T06:54:04.055Z,12.00
2018-02-03T06:55:04.048Z,11.70
2018-02-03T06:56:25.043Z,11.50
2018-02-03T06:57:04.026Z,11.30
2018-02-03T06:58:04.021Z,12.30
2018-02-03T06:59:04.011Z,12.80
2018-02-03T07:00:04.003Z,12.90
2018-02-03T07:01:03.997Z,14.80
2018-02-03T07:02:24.988Z,14.50
2018-02-03T07:03:03.974Z,14.60
2018-02-03T07:04:03.965Z,18.40
2018-02-03T07:05:03.958Z,18.20
2018-02-03T07:06:03.947Z,17.40
2018-02-03T07:07:03.934Z,16.60
2018-02-03T07:08:24.941Z,18.70
2018-02-03T07:09:03.920Z,17.30
2018-02-03T07:10:03.911Z,15.40
2018-02-03T07:11:03.896Z,16.20
2018-02-03T07:12:03.895Z,15.30
2018-02-03T07:13:03.886Z,12.70
2018-02-03T07:14:24.880Z,14.50
2018-02-03T07:15:03.866Z,12.80
2018-02-03T07:16:03.857Z,13.80
2018-02-03T07:17:03.846Z,13.90
2018-02-03T07:18:03.862Z,11.40
2018-02-03T07:19:03.833Z,12.60
2018-02-03T07:20:24.833Z,11.30
2018-02-03T07:21:03.814Z,11.20
2018-02-03T07:22:03.809Z,13.00
2018-02-03T07:23:03.800Z,12.00
2018-02-03T07:24:03.805Z,12.70
2018-02-03T07:25:03.775Z,13.00
2018-02-03T07:26:24.774Z,11.50
2018-02-03T07:27:03.756Z,11.40
2018-02-03T07:28:03.751Z,11.50
2018-02-03T07:29:03.754Z,11.00
2018-02-03T07:30:03.767Z,12.80
2018-02-03T07:31:03.732Z,13.10
2018-02-03T07:32:24.721Z,14.70
2018-02-03T07:33:04.481Z,14.60
2018-02-03T07:34:03.724Z,13.50
2018-02-03T07:35:03.710Z,12.30
2018-02-03T07:36:03.688Z,13.40
2018-02-03T07:37:03.671Z,10.90
2018-02-03T07:38:24.664Z,12.20
2018-02-03T07:39:03.650Z,12.60
2018-02-03T07:40:03.655Z,13.00
2018-02-03T07:41:03.666Z,11.20
2018-02-03T07:42:03.617Z,10.90
2018-02-03T07:43:03.622Z,12.30
2018-02-03T07:44:24.616Z,11.80
2018-02-03T07:45:03.598Z,11.50
2018-02-03T07:46:03.604Z,12.00
2018-02-03T07:47:03.582Z,13.20
2018-02-03T07:48:03.573Z,22.00
2018-02-03T07:49:03.561Z,29.00
2018-02-03T07:50:24.561Z,31.80
2018-02-03T07:51:03.547Z,29.60
2018-02-03T07:52:03.553Z,28.40
2018-02-03T07:53:03.541Z,21.50
2018-02-03T07:54:03.528Z,15.90
2018-02-03T07:55:03.511Z,14.20
2018-02-03T07:56:24.509Z,13.90
2018-02-03T07:57:03.501Z,13.00
2018-02-03T07:58:03.485Z,14.00
2018-02-03T07:59:03.476Z,12.00
2018-02-03T08:00:03.468Z,13.10
2018-02-03T08:01:03.459Z,12.80
2018-02-03T08:02:24.451Z,11.40
2018-02-03T08:03:03.440Z,11.00
2018-02-03T08:04:03.444Z,13.20
2018-02-03T08:05:03.426Z,11.90
2018-02-03T08:06:03.414Z,11.40
2018-02-03T08:07:03.406Z,12.10
2018-02-03T08:08:24.401Z,12.20
2018-02-03T08:09:03.383Z,12.90
2018-02-03T08:10:03.384Z,11.30
2018-02-03T08:11:03.369Z,11.90
2018-02-03T08:12:03.361Z,12.50
2018-02-03T08:13:03.352Z,12.00
2018-02-03T08:14:24.350Z,11.60
2018-02-03T08:15:03.332Z,11.10
2018-02-03T08:16:03.326Z,12.90
2018-02-03T08:17:03.320Z,12.50
2018-02-03T08:18:03.310Z,11.40
2018-02-03T08:19:03.298Z,12.50
2018-02-03T08:20:24.297Z,13.80
2018-02-03T08:21:03.283Z,13.00
2018-02-03T08:22:03.274Z,13.20
2018-02-03T08:23:03.265Z,12.20
2018-02-03T08:24:03.254Z,13.60
2018-02-03T08:25:03.250Z,12.90
2018-02-03T08:26:24.246Z,12.30
2018-02-03T08:27:03.233Z,14.30
2018-02-03T08:28:03.223Z,12.40
2018-02-03T08:29:03.214Z,13.40
2018-02-03T08:30:03.205Z,13.20
2018-02-03T08:31:03.197Z,12.80
2018-02-03T08:32:24.194Z,12.70
2018-02-03T08:33:03.178Z,13.40
2018-02-03T08:34:04.025Z,14.90
2018-02-03T08:35:03.162Z,14.80
2018-02-03T08:36:03.154Z,15.60
2018-02-03T08:37:03.144Z,15.30
2018-02-03T08:38:24.145Z,13.70
2018-02-03T08:39:03.128Z,13.90
2018-02-03T08:40:03.116Z,15.00
2018-02-03T08:41:03.111Z,14.20
2018-02-03T08:42:03.104Z,15.20
2018-02-03T08:43:03.093Z,14.30
2018-02-03T08:44:24.088Z,17.40
2018-02-03T08:45:03.078Z,16.80
2018-02-03T08:46:03.075Z,15.50
2018-02-03T08:47:03.062Z,15.20
2018-02-03T08:48:04.047Z,14.80
2018-02-03T08:49:03.043Z,17.30
2018-02-03T08:50:24.046Z,14.20
2018-02-03T08:51:03.027Z,14.00
2018-02-03T08:52:03.020Z,14.60
2018-02-03T08:53:03.008Z,14.80
2018-02-03T08:54:02.997Z,14.80
2018-02-03T08:55:02.998Z,15.10
2018-02-03T08:56:23.997Z,13.70
2018-02-03T08:57:02.972Z,14.00
2018-02-03T08:58:02.965Z,16.10
2018-02-03T08:59:02.965Z,14.70
2018-02-03T09:00:02.946Z,16.40
2018-02-03T09:01:02.943Z,14.80
2018-02-03T09:02:23.973Z,15.60
2018-02-03T09:03:02.926Z,13.90
2018-02-03T09:04:02.912Z,15.10
2018-02-03T09:05:02.909Z,16.90
2018-02-03T09:06:02.898Z,15.20
2018-02-03T09:07:02.894Z,15.10
2018-02-03T09:08:23.887Z,15.10
2018-02-03T09:09:02.874Z,15.40
2018-02-03T09:10:02.868Z,16.00
2018-02-03T09:11:02.857Z,16.30
2018-02-03T09:12:02.848Z,14.90
2018-02-03T09:13:02.841Z,15.50
2018-02-03T09:14:23.836Z,15.00
2018-02-03T09:15:02.824Z,15.20
2018-02-03T09:16:02.822Z,16.50
2018-02-03T09:17:02.816Z,15.80
2018-02-03T09:18:02.796Z,14.70
2018-02-03T09:19:02.787Z,16.00
2018-02-03T09:20:23.785Z,15.30
2018-02-03T09:21:02.767Z,15.40
2018-02-03T09:22:02.762Z,15.00
2018-02-03T09:23:03.504Z,16.10
2018-02-03T09:24:02.746Z,15.50
2018-02-03T09:25:02.736Z,16.00
2018-02-03T09:26:23.778Z,16.90
2018-02-03T09:27:02.719Z,16.00
2018-02-03T09:28:02.710Z,15.60
2018-02-03T09:29:02.704Z,16.50
2018-02-03T09:30:02.692Z,14.50
2018-02-03T09:31:02.682Z,15.00
2018-02-03T09:32:23.678Z,14.30
2018-02-03T09:33:02.668Z,13.70
2018-02-03T09:34:02.659Z,14.50
2018-02-03T09:35:02.646Z,14.20
2018-02-03T09:36:02.641Z,15.70
2018-02-03T09:37:02.634Z,13.90
2018-02-03T09:38:23.634Z,15.30
2018-02-03T09:39:02.617Z,13.90
2018-02-03T09:40:02.609Z,16.30
2018-02-03T09:41:02.601Z,14.70
2018-02-03T09:42:02.588Z,16.10
2018-02-03T09:43:02.581Z,16.30
2018-02-03T09:44:23.579Z,16.40
2018-02-03T09:45:02.610Z,14.20
2018-02-03T09:46:02.555Z,15.70
2018-02-03T09:47:02.549Z,13.90
2018-02-03T09:48:02.540Z,15.10
2018-02-03T09:49:02.537Z,15.70
2018-02-03T09:50:23.563Z,16.90
2018-02-03T09:51:02.515Z,14.90
2018-02-03T09:52:02.503Z,15.00
2018-02-03T09:53:02.499Z,15.10
2018-02-03T09:54:02.489Z,13.60
2018-02-03T09:55:02.477Z,13.20
2018-02-03T09:56:23.507Z,14.00
2018-02-03T09:57:02.464Z,14.10
2018-02-03T09:58:02.458Z,13.70
2018-02-03T09:59:02.445Z,13.00
2018-02-03T10:00:02.441Z,11.80
2018-02-03T10:01:02.429Z,12.10
2018-02-03T10:02:23.423Z,13.40
2018-02-03T10:03:02.413Z,11.50
2018-02-03T10:04:02.404Z,11.80
2018-02-03T10:05:02.406Z,12.40
2018-02-03T10:06:02.386Z,10.80
2018-02-03T10:07:02.379Z,9.90
2018-02-03T10:08:23.378Z,8.60
2018-02-03T10:09:02.364Z,8.70
2018-02-03T10:10:02.355Z,8.70
2018-02-03T10:11:02.349Z,9.30
2018-02-03T10:12:02.336Z,9.10
2018-02-03T10:13:02.344Z,7.90
2018-02-03T10:14:23.325Z,7.60
2018-02-03T10:15:02.315Z,7.10
2018-02-03T10:16:02.304Z,6.60
2018-02-03T10:17:02.301Z,7.80
2018-02-03T10:18:02.291Z,8.70
2018-02-03T10:19:02.284Z,7.80
2018-02-03T10:20:23.284Z,7.00
2018-02-03T10:21:02.268Z,7.50
2018-02-03T10:22:02.254Z,7.90
2018-02-03T10:23:02.253Z,7.50
2018-02-03T10:24:02.242Z,6.80
2018-02-03T10:25:02.234Z,7.90
2018-02-03T10:26:23.231Z,7.60
2018-02-03T10:27:02.218Z,8.90
2018-02-03T10:28:02.209Z,7.90
2018-02-03T10:29:02.203Z,8.80
2018-02-03T10:30:02.196Z,7.40
2018-02-03T10:31:02.188Z,7.00
2018-02-03T10:32:23.188Z,7.90
2018-02-03T10:33:02.172Z,7.30
2018-02-03T10:34:02.167Z,7.70
2018-02-03T10:35:02.152Z,7.60
2018-02-03T10:36:02.148Z,6.80
2018-02-03T10:37:02.140Z,7.40
2018-02-03T10:38:23.138Z,7.00
2018-02-03T10:39:02.125Z,7.00
2018-02-03T10:40:02.116Z,7.00
2018-02-03T10:41:02.108Z,5.80
2018-02-03T10:42:02.098Z,7.40
2018-02-03T10:43:02.093Z,5.50
2018-02-03T10:44:23.106Z,6.00
2018-02-03T10:45:02.077Z,6.00
2018-02-03T10:46:02.075Z,5.60
2018-02-03T10:47:02.061Z,5.80
2018-02-03T10:48:02.056Z,6.20
2018-02-03T10:49:02.050Z,5.70
2018-02-03T10:50:23.047Z,6.20
2018-02-03T10:51:02.032Z,6.70
2018-02-03T10:52:02.027Z,7.20
2018-02-03T10:53:02.019Z,6.10
2018-02-03T10:54:02.013Z,6.30
2018-02-03T10:55:02.010Z,5.90
2018-02-03T10:56:23.004Z,6.50
2018-02-03T10:57:01.988Z,5.90
2018-02-03T10:58:02.495Z,6.10
2018-02-03T10:59:01.977Z,5.40
2018-02-03T11:00:01.966Z,5.60
2018-02-03T11:01:01.960Z,6.40
2018-02-03T11:02:22.956Z,6.40
2018-02-03T11:03:01.943Z,5.80
2018-02-03T11:04:01.932Z,7.20
2018-02-03T11:05:01.930Z,6.10
2018-02-03T11:06:01.924Z,7.50
2018-02-03T11:07:01.915Z,6.50
2018-02-03T11:08:22.913Z,6.70
2018-02-03T11:09:01.898Z,7.40
2018-02-03T11:10:01.890Z,6.80
2018-02-03T11:11:01.885Z,6.90
2018-02-03T11:12:01.876Z,8.60
2018-02-03T11:13:01.865Z,7.00
2018-02-03T11:14:22.862Z,7.00
2018-02-03T11:15:01.873Z,6.50
2018-02-03T11:16:01.847Z,8.40
2018-02-03T11:17:01.840Z,11.10
2018-02-03T11:18:01.831Z,12.60
2018-02-03T11:19:01.823Z,11.10
2018-02-03T11:20:22.821Z,9.10
2018-02-03T11:21:01.808Z,9.00
2018-02-03T11:22:01.802Z,8.70
2018-02-03T11:23:01.793Z,8.40
2018-02-03T11:24:01.783Z,7.30
2018-02-03T11:25:01.778Z,6.80
2018-02-03T11:26:22.775Z,7.20
2018-02-03T11:27:01.767Z,6.50
2018-02-03T11:28:01.751Z,6.80
2018-02-03T11:29:01.748Z,6.00
2018-02-03T11:30:01.738Z,7.30
2018-02-03T11:31:01.733Z,6.10
2018-02-03T11:32:22.733Z,5.90
2018-02-03T11:33:01.716Z,6.20
2018-02-03T11:34:01.704Z,6.40
2018-02-03T11:35:01.703Z,5.60
2018-02-03T11:36:01.693Z,6.30
2018-02-03T11:37:01.686Z,7.10
2018-02-03T11:38:22.683Z,6.10
2018-02-03T11:39:01.670Z,6.60
2018-02-03T11:40:01.663Z,7.00
2018-02-03T11:41:01.657Z,5.60
2018-02-03T11:42:01.651Z,6.20
2018-02-03T11:43:01.641Z,6.90
2018-02-03T11:44:22.638Z,6.10
2018-02-03T11:45:01.629Z,5.40
2018-02-03T11:46:01.619Z,4.60
2018-02-03T11:47:01.611Z,6.50
2018-02-03T11:48:01.602Z,4.70
2018-02-03T11:49:01.612Z,5.40
2018-02-03T11:50:22.593Z,5.20
2018-02-03T11:51:01.585Z,6.70
2018-02-03T11:52:01.576Z,5.40
2018-02-03T11:53:01.570Z,5.50
2018-02-03T11:54:01.562Z,4.80
2018-02-03T11:55:01.556Z,4.50
2018-02-03T11:56:22.553Z,5.70
2018-02-03T11:57:01.539Z,5.20
2018-02-03T11:58:01.535Z,4.70
2018-02-03T11:59:01.565Z,5.30
2018-02-03T12:00:01.518Z,4.90
2018-02-03T12:01:01.537Z,5.90
2018-02-03T12:02:22.510Z,5.40
2018-02-03T12:03:01.499Z,5.20
2018-02-03T12:04:01.489Z,4.90
2018-02-03T12:05:01.484Z,5.30
2018-02-03T12:06:01.477Z,4.70
2018-02-03T12:07:01.468Z,4.80
2018-02-03T12:08:22.464Z,5.20
2018-02-03T12:09:01.451Z,5.40
2018-02-03T12:10:01.448Z,5.90
2018-02-03T12:11:01.440Z,4.90
2018-02-03T12:12:01.435Z,6.40
2018-02-03T12:13:01.425Z,6.10
2018-02-03T12:14:22.422Z,5.70
2018-02-03T12:15:01.441Z,5.70
2018-02-03T12:16:01.404Z,5.50
2018-02-03T12:17:01.406Z,5.70
2018-02-03T12:18:01.389Z,4.90
2018-02-03T12:19:01.378Z,5.70
2018-02-03T12:20:22.382Z,5.60
2018-02-03T12:21:01.365Z,5.90
2018-02-03T12:22:01.360Z,8.10
2018-02-03T12:23:01.350Z,7.90
2018-02-03T12:24:01.347Z,7.90
2018-02-03T12:25:01.337Z,5.90
2018-02-03T12:26:22.335Z,7.20
2018-02-03T12:27:01.326Z,8.50
2018-02-03T12:28:01.317Z,9.60
2018-02-03T12:29:01.302Z,8.70
2018-02-03T12:30:01.301Z,6.80
2018-02-03T12:31:01.298Z,6.70
2018-02-03T12:32:22.294Z,6.20
2018-02-03T12:33:01.287Z,5.70
2018-02-03T12:34:01.272Z,6.10
2018-02-03T12:35:01.267Z,7.30
2018-02-03T12:36:01.258Z,5.80
2018-02-03T12:37:01.254Z,7.20
2018-02-03T12:38:22.252Z,6.30
2018-02-03T12:39:01.242Z,6.00
2018-02-03T12:40:01.232Z,6.70
2018-02-03T12:41:01.226Z,6.50
2018-02-03T12:42:01.217Z,7.40
2018-02-03T12:43:01.210Z,6.30
2018-02-03T12:44:22.216Z,5.70
2018-02-03T12:45:01.195Z,7.00
2018-02-03T12:46:01.186Z,7.30
2018-02-03T12:47:01.189Z,5.30
2018-02-03T12:48:01.175Z,7.10
2018-02-03T12:49:01.166Z,6.10
2018-02-03T12:50:22.164Z,7.60
2018-02-03T12:51:01.151Z,6.60
2018-02-03T12:52:01.145Z,7.30
2018-02-03T12:53:01.137Z,7.60
2018-02-03T12:54:01.138Z,7.80
2018-02-03T12:55:01.135Z,6.10
2018-02-03T12:56:22.138Z,7.30
2018-02-03T12:57:01.109Z,7.80
2018-02-03T12:58:01.106Z,6.70
2018-02-03T12:59:01.095Z,8.60
2018-02-03T13:00:01.088Z,7.30
2018-02-03T13:01:01.078Z,8.60
2018-02-03T13:02:22.080Z,9.30
2018-02-03T13:03:01.067Z,7.10
2018-02-03T13:04:01.058Z,7.30
2018-02-03T13:05:01.051Z,6.40
2018-02-03T13:06:01.045Z,5.30
2018-02-03T13:07:01.033Z,5.10
2018-02-03T13:08:22.037Z,5.40